createdAt,value
2023-03-20T00:00:10.000Z,1.6
2023-03-20T00:01:26.000Z,1.9
2023-03-20T00:02:43.104Z,1.6
2023-03-20T00:03:59.293Z,1.6
2023-03-20T00:04:57.484Z,1.7
2023-03-20T00:06:31.000Z,1.6
2023-03-20T00:07:47.880Z,1.5
2023-03-20T00:09:03.085Z,1.3
2023-03-20T00:10:01.280Z,1.5
2023-03-20T00:11:35.000Z,1.6
2023-03-20T00:12:51.000Z,1.5
2023-03-20T00:14:07.865Z,1.6
2023-03-20T00:15:06.060Z,1.7
2023-03-20T00:16:40.257Z,1.8
2023-03-20T00:17:56.456Z,1.5
2023-03-20T00:19:12.000Z,1.4
2023-03-20T00:20:28.845Z,1.5
2023-03-20T00:21:45.000Z,1.6
2023-03-20T00:22:43.230Z,1.5
2023-03-20T00:24:17.427Z,1.5
2023-03-20T00:25:33.000Z,1.3
2023-03-20T00:26:49.000Z,1.4
2023-03-20T00:27:48.011Z,1.6
2023-03-20T00:29:22.000Z,1.4
2023-03-20T00:30:20.401Z,1.5
2023-03-20T00:32:16.000Z,1.5
2023-03-20T00:33:09.000Z,1.5
2023-03-20T00:34:08.001Z,1.9
2023-03-20T00:35:24.196Z,2
2023-03-20T00:36:58.000Z,1.7
2023-03-20T00:38:14.000Z,1.4
2023-03-20T00:39:53.000Z,1.8
2023-03-20T00:40:28.976Z,1.6
2023-03-20T00:42:03.167Z,1.7
2023-03-20T00:43:01.366Z,1.4
2023-03-20T00:44:35.000Z,1.7
2023-03-20T00:45:51.755Z,1.7
2023-03-20T00:47:07.000Z,1.4
2023-03-20T00:48:06.145Z,1.4
2023-03-20T00:49:40.000Z,1.6
2023-03-20T00:50:56.535Z,1.6
2023-03-20T00:52:12.000Z,1.8
2023-03-20T00:53:28.920Z,1.7
2023-03-20T00:54:44.000Z,1.7
2023-03-20T00:55:42.330Z,1.7
2023-03-20T00:57:16.525Z,1.8
2023-03-20T00:58:14.720Z,1.9
2023-03-20T00:59:48.000Z,1.8
2023-03-20T01:01:05.110Z,1.6
2023-03-20T01:02:21.299Z,2.1
2023-03-20T01:03:37.000Z,1.7
2023-03-20T01:04:53.000Z,1.8
2023-03-20T01:05:51.889Z,1.9
2023-03-20T01:07:26.085Z,2
2023-03-20T01:08:24.279Z,2
2023-03-20T01:10:21.000Z,2.1
2023-03-20T01:10:56.669Z,1.6
2023-03-20T01:12:29.880Z,1.6
2023-03-20T01:13:28.074Z,1.7
2023-03-20T01:15:02.269Z,1.4
2023-03-20T01:16:18.000Z,1.9
2023-03-20T01:17:34.659Z,1.8
2023-03-20T01:18:50.855Z,1.8
2023-03-20T01:20:07.055Z,1.9
2023-03-20T01:21:23.251Z,1.7
2023-03-20T01:22:39.439Z,2
2023-03-20T01:23:37.634Z,1.8
2023-03-20T01:25:11.000Z,2
2023-03-20T01:26:28.030Z,1.5
2023-03-20T01:27:44.000Z,1.7
2023-03-20T01:29:00.000Z,1.8
2023-03-20T01:30:16.609Z,1.8
2023-03-20T01:31:32.802Z,1.8
2023-03-20T01:32:49.000Z,2
2023-03-20T01:33:47.315Z,1.9
2023-03-20T01:35:21.000Z,1.8
2023-03-20T01:36:37.000Z,1.9
2023-03-20T01:37:53.000Z,2.3
2023-03-20T01:38:52.095Z,1.6
2023-03-20T01:40:26.286Z,2.1
2023-03-20T01:41:42.485Z,1.8
2023-03-20T01:42:58.688Z,1.8
2023-03-20T01:44:14.868Z,1.6
2023-03-20T01:45:31.000Z,2
2023-03-20T01:46:47.263Z,2
2023-03-20T01:48:03.468Z,2
2023-03-20T01:49:19.000Z,2.2
2023-03-20T01:50:34.000Z,2.1
2023-03-20T01:51:51.056Z,1.6
2023-03-20T01:53:07.000Z,2
2023-03-20T01:54:23.000Z,2
2023-03-20T01:55:39.000Z,1.8
2023-03-20T01:56:55.839Z,2
2023-03-20T01:58:12.035Z,1.9
2023-03-20T01:59:28.225Z,1.7
2023-03-20T02:00:44.000Z,2.1
2023-03-20T02:02:00.632Z,1.6
2023-03-20T02:03:16.000Z,2.1
2023-03-20T02:04:15.010Z,1.9
2023-03-20T02:05:49.000Z,2
2023-03-20T02:07:05.000Z,1.7
2023-03-20T02:08:21.000Z,1.7
2023-03-20T02:09:37.796Z,1.9
2023-03-20T02:10:53.000Z,1.6
2023-03-20T02:12:09.000Z,1.9
2023-03-20T02:13:25.390Z,2
2023-03-20T02:14:23.585Z,1.9
2023-03-20T02:15:57.781Z,2
2023-03-20T02:17:13.970Z,1.8
2023-03-20T02:18:30.182Z,1.9
2023-03-20T02:19:46.000Z,2
2023-03-20T02:21:02.558Z,2
2023-03-20T02:22:00.755Z,1.7
2023-03-20T02:23:34.943Z,2
2023-03-20T02:24:51.000Z,2.2
2023-03-20T02:26:07.346Z,1.9
2023-03-20T02:27:23.534Z,1.9
2023-03-20T02:28:38.746Z,2.2
2023-03-20T02:29:36.940Z,1.9
2023-03-20T02:31:11.000Z,2
2023-03-20T02:32:27.330Z,1.9
2023-03-20T02:33:43.525Z,2
2023-03-20T02:34:59.730Z,2.2
2023-03-20T02:35:57.915Z,1.9
2023-03-20T02:37:32.105Z,1.7
2023-03-20T02:38:48.307Z,1.8
2023-03-20T02:40:04.498Z,2
2023-03-20T02:41:20.000Z,2
2023-03-20T02:42:18.889Z,1.7
2023-03-20T02:43:53.000Z,1.9
2023-03-20T02:45:09.279Z,1.7
2023-03-20T02:46:25.000Z,2
2023-03-20T02:47:23.669Z,1.9
2023-03-20T02:48:57.000Z,1.9
2023-03-20T02:50:14.055Z,2.1
2023-03-20T02:51:29.270Z,2.1
2023-03-20T02:52:45.472Z,2.4
2023-03-20T02:54:01.662Z,2.2
2023-03-20T02:54:59.854Z,2.1
2023-03-20T02:56:34.043Z,2.1
2023-03-20T02:57:50.244Z,2.1
2023-03-20T02:58:48.439Z,2.1
2023-03-20T03:00:04.634Z,2
2023-03-20T03:01:38.000Z,2.1
2023-03-20T03:03:18.000Z,2.3
2023-03-20T03:04:11.220Z,2
2023-03-20T03:05:27.415Z,1.8
2023-03-20T03:06:43.000Z,2.2
2023-03-20T03:07:40.817Z,2.2
2023-03-20T03:09:15.012Z,2.3
2023-03-20T03:10:31.000Z,2.3
2023-03-20T03:12:10.000Z,2.3
2023-03-20T03:12:45.597Z,2.2
2023-03-20T03:14:19.792Z,2
2023-03-20T03:15:35.978Z,2.1
2023-03-20T03:16:52.182Z,2.3
2023-03-20T03:18:08.377Z,2
2023-03-20T03:19:24.583Z,2.1
2023-03-20T03:20:22.766Z,2.2
2023-03-20T03:21:56.962Z,2.1
2023-03-20T03:23:13.000Z,2.4
2023-03-20T03:24:29.355Z,2.4
2023-03-20T03:25:26.562Z,2.1
2023-03-20T03:27:00.757Z,2.3
2023-03-20T03:27:58.952Z,2.6
2023-03-20T03:29:33.159Z,2.5
2023-03-20T03:30:49.342Z,2.3
2023-03-20T03:32:05.000Z,2.3
2023-03-20T03:33:03.732Z,2.3
2023-03-20T03:34:37.935Z,2.6
2023-03-20T03:35:54.122Z,2
2023-03-20T03:37:10.327Z,2.1
2023-03-20T03:38:08.511Z,2.4
2023-03-20T03:39:42.000Z,2.3
2023-03-20T03:40:58.910Z,2.1
2023-03-20T03:42:15.000Z,2.5
2023-03-20T03:43:31.292Z,2.3
2023-03-20T03:44:28.503Z,3.1
2023-03-20T03:45:44.698Z,2.3
2023-03-20T03:47:18.893Z,2.8
2023-03-20T03:48:35.000Z,2.5
2023-03-20T03:49:51.286Z,2.7
2023-03-20T03:50:49.478Z,2.9
2023-03-20T03:52:22.000Z,2.8
2023-03-20T03:53:20.890Z,2.9
2023-03-20T03:54:55.085Z,3.2
2023-03-20T03:55:53.280Z,2.8
2023-03-20T03:57:27.000Z,2.7
2023-03-20T03:58:43.664Z,2.4
2023-03-20T03:59:59.867Z,2.6
2023-03-20T04:01:16.000Z,2.8
2023-03-20T04:02:32.000Z,2.4
2023-03-20T04:03:30.449Z,2.4
2023-03-20T04:05:04.645Z,2.7
2023-03-20T04:06:02.839Z,2.8
2023-03-20T04:07:19.036Z,2.7
2023-03-20T04:08:53.236Z,2.8
2023-03-20T04:10:08.000Z,2.8
2023-03-20T04:11:24.635Z,2.7
2023-03-20T04:12:40.829Z,2.9
2023-03-20T04:13:57.000Z,2.9
2023-03-20T04:15:13.218Z,2.9
2023-03-20T04:16:11.419Z,2.9
2023-03-20T04:17:45.000Z,2.9
2023-03-20T04:19:01.803Z,3.1
2023-03-20T04:20:18.006Z,2.8
2023-03-20T04:21:34.199Z,3
2023-03-20T04:22:50.395Z,2.8
2023-03-20T04:23:48.590Z,3.4
2023-03-20T04:25:22.790Z,3.1
2023-03-20T04:26:38.000Z,3.2
2023-03-20T04:27:54.192Z,3.6
2023-03-20T04:29:10.393Z,3.4
2023-03-20T04:30:08.584Z,3
2023-03-20T04:31:24.779Z,3.1
2023-03-20T04:32:58.000Z,3.2
2023-03-20T04:34:15.174Z,3
2023-03-20T04:35:54.000Z,3.3
2023-03-20T04:37:10.000Z,3.1
2023-03-20T04:38:03.000Z,3.3
2023-03-20T04:39:19.951Z,3.5
2023-03-20T04:40:36.000Z,3.1
2023-03-20T04:41:34.342Z,3.9
2023-03-20T04:43:08.545Z,3.5
2023-03-20T04:44:06.733Z,3.3
2023-03-20T04:45:39.000Z,3.2
2023-03-20T04:46:56.000Z,3.4
2023-03-20T04:48:12.000Z,3.5
2023-03-20T04:49:10.529Z,3
2023-03-20T04:50:44.730Z,3
2023-03-20T04:52:00.000Z,3.1
2023-03-20T04:53:40.000Z,3.3
2023-03-20T04:54:33.316Z,3.2
2023-03-20T04:55:49.000Z,3.3
2023-03-20T04:56:47.702Z,3.3
2023-03-20T04:58:21.899Z,3.5
2023-03-20T04:59:38.098Z,3.2
2023-03-20T05:00:54.000Z,3.3
2023-03-20T05:01:52.483Z,3.5
2023-03-20T05:03:25.695Z,3.2
2023-03-20T05:04:41.000Z,3.5
2023-03-20T05:06:21.000Z,2.8
2023-03-20T05:06:56.280Z,3.3
2023-03-20T05:08:30.474Z,3.2
2023-03-20T05:09:28.670Z,3.1
2023-03-20T05:11:02.000Z,3.3
2023-03-20T05:12:19.061Z,3.2
2023-03-20T05:13:35.000Z,3.4
2023-03-20T05:15:14.000Z,3.4
2023-03-20T05:16:07.648Z,3.7
2023-03-20T05:17:23.841Z,3.6
2023-03-20T05:18:40.000Z,3.4
2023-03-20T05:19:38.231Z,3.8
2023-03-20T05:21:11.453Z,3.7
2023-03-20T05:22:09.638Z,3.4
2023-03-20T05:23:43.000Z,3.8
2023-03-20T05:25:00.022Z,4.4
2023-03-20T05:26:16.000Z,3.9
2023-03-20T05:27:32.426Z,3.7
2023-03-20T05:28:48.625Z,3.5
2023-03-20T05:30:04.808Z,4
2023-03-20T05:31:03.004Z,4.1
2023-03-20T05:32:37.196Z,3.8
2023-03-20T05:33:53.000Z,4.3
2023-03-20T05:34:51.591Z,3.6
2023-03-20T05:36:48.000Z,3.9
2023-03-20T05:37:41.000Z,4.2
2023-03-20T05:38:39.193Z,4.2
2023-03-20T05:39:55.388Z,4.1
2023-03-20T05:41:29.000Z,4.2
2023-03-20T05:42:45.000Z,4.2
2023-03-20T05:44:01.000Z,4.1
2023-03-20T05:45:00.170Z,4.8
2023-03-20T05:46:16.365Z,4.5
2023-03-20T05:47:50.560Z,4.4
2023-03-20T05:49:06.751Z,4.3
2023-03-20T05:50:22.963Z,4.2
2023-03-20T05:52:02.000Z,4.5
2023-03-20T05:52:37.340Z,4.5
2023-03-20T05:54:11.547Z,4.5
2023-03-20T05:56:42.000Z,4.7
2023-03-20T05:57:59.148Z,4.4
2023-03-20T05:59:15.337Z,4.9
2023-03-20T06:00:31.542Z,4.7
2023-03-20T06:01:47.726Z,4.6
2023-03-20T06:02:45.919Z,4.5
2023-03-20T06:04:20.114Z,4.7
2023-03-20T06:05:18.309Z,4.9
2023-03-20T06:06:52.000Z,4.4
2023-03-20T06:08:08.000Z,5.1
2023-03-20T06:09:24.894Z,5.1
2023-03-20T06:10:41.099Z,4.7
2023-03-20T06:11:57.000Z,5
2023-03-20T06:12:55.480Z,5.2
2023-03-20T06:14:28.000Z,5.9
2023-03-20T06:15:26.888Z,4.7
2023-03-20T06:17:01.083Z,5.7
2023-03-20T06:17:59.278Z,5.4
2023-03-20T06:19:33.000Z,5.6
2023-03-20T06:20:49.668Z,5.9
2023-03-20T06:22:05.864Z,5.8
2023-03-20T06:23:22.058Z,5.6
2023-03-20T06:24:38.000Z,5.1
2023-03-20T06:25:54.000Z,5.6
2023-03-20T06:27:10.000Z,5.4
2023-03-20T06:28:26.841Z,5.8
2023-03-20T06:29:43.035Z,5.4
2023-03-20T06:30:59.237Z,5.3
2023-03-20T06:32:15.000Z,5.7
2023-03-20T06:33:31.000Z,5.3
2023-03-20T06:34:47.822Z,6.7
2023-03-20T06:36:03.021Z,6.1
2023-03-20T06:37:19.223Z,6.5
2023-03-20T06:38:17.417Z,7.2
2023-03-20T06:39:51.000Z,6.7
2023-03-20T06:40:49.808Z,6.1
2023-03-20T06:42:24.000Z,6.4
2023-03-20T06:43:40.208Z,7.3
2023-03-20T06:44:56.403Z,6.8
2023-03-20T06:46:12.588Z,7.9
2023-03-20T06:47:28.793Z,7.7
2023-03-20T06:48:44.000Z,7.8
2023-03-20T06:50:01.000Z,8.3
2023-03-20T06:50:59.369Z,8
2023-03-20T06:52:33.562Z,8.3
2023-03-20T06:53:31.759Z,7.4
2023-03-20T06:55:04.973Z,7.6
2023-03-20T06:56:21.175Z,9
2023-03-20T06:57:37.000Z,8.5
2023-03-20T06:58:53.556Z,9.3
2023-03-20T07:00:09.751Z,8.1
2023-03-20T07:01:07.947Z,8.3
2023-03-20T07:02:42.000Z,9
2023-03-20T07:03:58.338Z,8.7
2023-03-20T07:05:14.000Z,8.2
2023-03-20T07:06:30.000Z,9.9
2023-03-20T07:07:46.924Z,8.6
2023-03-20T07:08:45.120Z,8.7
2023-03-20T07:10:19.315Z,9.3
2023-03-20T07:11:35.000Z,8.7
2023-03-20T07:12:51.000Z,8.8
2023-03-20T07:14:07.910Z,8.1
2023-03-20T07:15:23.000Z,8.7
2023-03-20T07:16:21.310Z,9.4
2023-03-20T07:17:55.000Z,9.3
2023-03-20T07:19:11.708Z,8.3
2023-03-20T07:20:27.896Z,8.8
2023-03-20T07:21:44.090Z,9.5
2023-03-20T07:23:00.285Z,9
2023-03-20T07:24:16.000Z,9
2023-03-20T07:25:32.687Z,8.5
2023-03-20T07:26:48.883Z,9.3
2023-03-20T07:28:05.000Z,8.9
2023-03-20T07:29:03.262Z,9.6
2023-03-20T07:30:37.466Z,9.1
2023-03-20T07:31:53.655Z,8.3
2023-03-20T07:33:33.000Z,9.1
2023-03-20T07:34:26.164Z,8.1
2023-03-20T07:35:42.000Z,8.7
2023-03-20T07:36:58.000Z,7.7
2023-03-20T07:38:14.759Z,7.5
2023-03-20T07:39:12.946Z,7.7
2023-03-20T07:40:47.151Z,8
2023-03-20T07:41:45.336Z,8.4
2023-03-20T07:43:19.000Z,7.8
2023-03-20T07:44:35.735Z,7.8
2023-03-20T07:45:51.923Z,7
2023-03-20T07:47:08.127Z,8.3
2023-03-20T07:48:24.323Z,7.3
2023-03-20T07:49:39.000Z,8
2023-03-20T07:50:55.000Z,7.6
2023-03-20T07:52:11.930Z,7.2
2023-03-20T07:53:28.000Z,8
2023-03-20T07:54:44.000Z,7.5
2023-03-20T07:56:00.502Z,7.1
2023-03-20T07:57:16.000Z,7.3
2023-03-20T07:58:32.000Z,7.3
2023-03-20T07:59:49.085Z,7.1
2023-03-20T08:01:05.285Z,7.2
2023-03-20T08:02:21.480Z,8
2023-03-20T08:03:37.675Z,8.6
2023-03-20T08:04:53.000Z,6.9
2023-03-20T08:06:10.000Z,7.7
2023-03-20T08:07:08.261Z,7.5
2023-03-20T08:08:42.460Z,6.8
2023-03-20T08:09:58.664Z,7.9
2023-03-20T08:10:56.846Z,7.5
2023-03-20T08:12:31.047Z,7.9
2023-03-20T08:13:47.000Z,7.3
2023-03-20T08:15:03.430Z,7.7
2023-03-20T08:16:19.627Z,7.6
2023-03-20T08:17:35.821Z,6.8
2023-03-20T08:18:52.017Z,7.8
2023-03-20T08:19:49.233Z,8.1
2023-03-20T08:21:23.000Z,7.3
2023-03-20T08:22:39.635Z,7.7
2023-03-20T08:23:55.819Z,6.6
2023-03-20T08:25:12.000Z,7.9
2023-03-20T08:26:28.213Z,7.9
2023-03-20T08:27:44.000Z,6.7
2023-03-20T08:29:00.000Z,7.2
2023-03-20T08:30:16.000Z,7.5
2023-03-20T08:31:33.000Z,7.3
2023-03-20T08:32:49.000Z,7.2
2023-03-20T08:33:47.380Z,7
2023-03-20T08:35:21.575Z,7.4
2023-03-20T08:36:37.000Z,6.8
2023-03-20T08:37:53.962Z,7.4
2023-03-20T08:39:10.000Z,7.4
2023-03-20T08:40:26.000Z,8.5
2023-03-20T08:41:42.000Z,7.8
2023-03-20T08:42:58.000Z,7.5
2023-03-20T08:44:13.000Z,7.2
2023-03-20T08:45:30.158Z,7.1
2023-03-20T08:46:46.000Z,7.6
2023-03-20T08:47:44.543Z,7.8
2023-03-20T08:49:18.748Z,7.8
2023-03-20T08:50:34.932Z,8.1
2023-03-20T08:51:51.000Z,7.4
2023-03-20T08:53:07.322Z,7.4
2023-03-20T08:54:46.000Z,7.1
2023-03-20T08:55:39.705Z,8.2
2023-03-20T08:56:55.897Z,6.8
2023-03-20T08:57:54.094Z,6.6
2023-03-20T08:59:28.000Z,7.1
2023-03-20T09:00:26.481Z,7.6
2023-03-20T09:02:00.802Z,6.8
2023-03-20T09:03:16.987Z,7.5
2023-03-20T09:04:33.000Z,6.6
2023-03-20T09:05:49.000Z,6.5
2023-03-20T09:07:05.000Z,6.7
2023-03-20T09:08:03.759Z,7
2023-03-20T09:09:37.000Z,8
2023-03-20T09:10:36.145Z,7.2
2023-03-20T09:12:10.000Z,6.4
2023-03-20T09:13:08.531Z,6.7
2023-03-20T09:14:42.000Z,6.3
2023-03-20T09:15:58.930Z,6.4
2023-03-20T09:17:15.000Z,6.2
2023-03-20T09:18:31.000Z,6.5
2023-03-20T09:19:29.495Z,6.8
2023-03-20T09:21:03.700Z,6.5
2023-03-20T09:22:18.897Z,5.5
2023-03-20T09:23:35.093Z,6.5
2023-03-20T09:24:51.000Z,5.6
2023-03-20T09:26:07.000Z,5.5
2023-03-20T09:27:23.000Z,6.1
2023-03-20T09:28:21.861Z,5
2023-03-20T09:29:56.056Z,5.5
2023-03-20T09:31:12.247Z,5
2023-03-20T09:32:28.448Z,4.4
2023-03-20T09:33:44.644Z,5.5
2023-03-20T09:35:00.000Z,5.7
2023-03-20T09:36:17.031Z,4.7
2023-03-20T09:37:33.000Z,4.8
2023-03-20T09:38:49.000Z,5.4
2023-03-20T09:40:05.000Z,5
2023-03-20T09:41:03.791Z,4.8
2023-03-20T09:42:37.013Z,5.1
2023-03-20T09:43:53.000Z,5.7
2023-03-20T09:45:09.000Z,4.9
2023-03-20T09:46:25.000Z,4.5
2023-03-20T09:47:41.783Z,5.2
2023-03-20T09:48:39.967Z,5.7
2023-03-20T09:49:56.159Z,5.3
2023-03-20T09:51:12.352Z,5.1
2023-03-20T09:52:46.000Z,5.4
2023-03-20T09:53:44.738Z,4.4
2023-03-20T09:55:00.931Z,5.4
2023-03-20T09:56:35.124Z,4.8
2023-03-20T09:57:51.331Z,4.4
2023-03-20T09:58:49.632Z,4.3
2023-03-20T10:00:23.000Z,4.7
2023-03-20T10:01:22.019Z,4.8
2023-03-20T10:02:56.000Z,4.5
2023-03-20T10:03:54.405Z,4.9
2023-03-20T10:05:28.599Z,4.8
2023-03-20T10:06:26.792Z,4.9
2023-03-20T10:08:00.985Z,4.5
2023-03-20T10:09:17.000Z,4.9
2023-03-20T10:10:33.000Z,4.9
2023-03-20T10:11:31.565Z,4.4
2023-03-20T10:13:05.764Z,3.7
2023-03-20T10:14:03.951Z,4.1
2023-03-20T10:15:37.000Z,3.9
2023-03-20T10:16:35.354Z,4.2
2023-03-20T10:18:32.000Z,4.2
2023-03-20T10:19:07.740Z,4.2
2023-03-20T10:20:41.933Z,3.9
2023-03-20T10:23:14.000Z,3.3
2023-03-20T10:24:30.519Z,3.3
2023-03-20T10:25:28.705Z,3.8
2023-03-20T10:26:44.898Z,4.2
2023-03-20T10:28:19.091Z,3.7
2023-03-20T10:29:17.284Z,3.4
2023-03-20T10:30:51.477Z,3.9
2023-03-20T10:32:07.682Z,4.9
2023-03-20T10:33:23.000Z,3.5
2023-03-20T10:34:40.000Z,4
2023-03-20T10:35:56.374Z,3.5
2023-03-20T10:37:12.000Z,3.7
2023-03-20T10:38:28.756Z,4
2023-03-20T10:39:26.949Z,3.3
2023-03-20T10:41:00.159Z,3.3
2023-03-20T10:41:58.351Z,4.2
2023-03-20T10:43:55.000Z,4.1
2023-03-20T10:45:11.000Z,3.8
2023-03-20T10:46:04.000Z,3.7
2023-03-20T10:47:21.000Z,3.4
2023-03-20T10:49:00.000Z,3.3
2023-03-20T10:49:35.509Z,3.3
2023-03-20T10:51:09.000Z,4
2023-03-20T10:52:25.894Z,3.4
2023-03-20T10:53:42.000Z,3.2
2023-03-20T10:54:58.000Z,3.5
2023-03-20T10:56:14.000Z,3.5
2023-03-20T10:57:12.667Z,3.3
2023-03-20T10:58:45.877Z,3.6
2023-03-20T11:00:02.000Z,3.2
2023-03-20T11:01:18.000Z,3.6
2023-03-20T11:02:16.456Z,3.2
2023-03-20T11:03:50.649Z,3.3
2023-03-20T11:04:48.842Z,3.5
2023-03-20T11:06:23.000Z,2.8
2023-03-20T11:07:39.228Z,3.7
2023-03-20T11:08:55.000Z,3
2023-03-20T11:09:53.614Z,3.5
2023-03-20T11:11:27.823Z,4
2023-03-20T11:12:44.000Z,2.8
2023-03-20T11:14:00.000Z,2.6
2023-03-20T11:14:58.387Z,3
2023-03-20T11:16:32.580Z,3
2023-03-20T11:17:30.773Z,3.6
2023-03-20T11:19:04.000Z,3.5
2023-03-20T11:20:21.000Z,2.7
2023-03-20T11:21:37.353Z,2.9
2023-03-20T11:22:35.546Z,3
2023-03-20T11:24:09.739Z,2.6
2023-03-20T11:25:25.932Z,3.4
2023-03-20T11:26:42.000Z,3.9
2023-03-20T11:27:40.318Z,3.6
2023-03-20T11:28:55.528Z,3.3
2023-03-20T11:30:11.720Z,4
2023-03-20T11:31:45.000Z,2.8
2023-03-20T11:32:44.107Z,2.8
2023-03-20T11:34:00.300Z,2.6
2023-03-20T11:35:16.493Z,3.6
2023-03-20T11:36:50.000Z,3.9
2023-03-20T11:38:06.879Z,3.3
2023-03-20T11:39:23.000Z,3.3
2023-03-20T11:40:21.266Z,3.1
2023-03-20T11:41:55.456Z,3.4
2023-03-20T11:42:53.652Z,2.8
2023-03-20T11:44:27.000Z,3.1
2023-03-20T11:45:44.047Z,3
2023-03-20T11:46:59.248Z,3
2023-03-20T11:47:57.441Z,2.8
2023-03-20T11:49:13.634Z,3.3
2023-03-20T11:50:47.827Z,3.1
2023-03-20T11:52:04.000Z,3.5
2023-03-20T11:53:20.223Z,4.2
2023-03-20T11:54:36.000Z,3.1
2023-03-20T11:55:52.598Z,3.6
2023-03-20T11:57:08.000Z,3.3
2023-03-20T11:58:06.988Z,3.4
2023-03-20T11:59:41.186Z,2.7
2023-03-20T12:00:39.374Z,3.4
2023-03-20T12:02:13.000Z,2.7
2023-03-20T12:03:29.760Z,3.4
2023-03-20T12:04:45.958Z,3.8
2023-03-20T12:06:02.000Z,3.4
2023-03-20T12:07:18.352Z,2.8
2023-03-20T12:08:34.543Z,3.1
2023-03-20T12:09:50.000Z,3.5
2023-03-20T12:11:07.040Z,3.7
2023-03-20T12:12:23.000Z,3.2
2023-03-20T12:13:21.427Z,3
2023-03-20T12:14:55.000Z,4.1
2023-03-20T12:16:11.813Z,3.1
2023-03-20T12:17:28.000Z,3.3
2023-03-20T12:18:26.200Z,3.7
2023-03-20T12:20:00.402Z,3.4
2023-03-20T12:21:16.584Z,3.4
2023-03-20T12:22:32.000Z,2.9
2023-03-20T12:23:48.972Z,3.5
2023-03-20T12:25:05.000Z,3.7
2023-03-20T12:26:21.370Z,2.9
2023-03-20T12:27:36.567Z,3.2
2023-03-20T12:28:52.000Z,3.6
2023-03-20T12:30:08.966Z,2.9
2023-03-20T12:31:07.146Z,3.8
2023-03-20T12:32:41.348Z,3.4
2023-03-20T12:33:39.532Z,3.8
2023-03-20T12:35:12.000Z,3.8
2023-03-20T12:36:10.941Z,3.4
2023-03-20T12:37:45.134Z,3.2
2023-03-20T12:39:01.000Z,3.1
2023-03-20T12:40:17.520Z,3.3
2023-03-20T12:41:33.000Z,3.4
2023-03-20T12:42:49.914Z,4.2
2023-03-20T12:43:48.100Z,3.8
2023-03-20T12:45:22.304Z,4.2
2023-03-20T12:46:38.484Z,3.4
2023-03-20T12:47:54.000Z,3.8
2023-03-20T12:49:10.872Z,3.9
2023-03-20T12:50:27.073Z,3.8
2023-03-20T12:51:25.258Z,4.1
2023-03-20T12:52:59.462Z,3.3
2023-03-20T12:54:14.000Z,4
2023-03-20T12:55:30.851Z,3.9
2023-03-20T12:56:29.045Z,3.8
2023-03-20T12:58:03.000Z,4
2023-03-20T12:59:01.431Z,2.7
2023-03-20T13:00:35.624Z,3.7
2023-03-20T13:01:51.818Z,3.9
2023-03-20T13:03:08.011Z,3.6
2023-03-20T13:04:47.000Z,4.1
2023-03-20T13:05:40.000Z,3.9
2023-03-20T13:06:56.590Z,4.5
2023-03-20T13:08:12.000Z,4.5
2023-03-20T13:09:10.976Z,3.7
2023-03-20T13:10:44.000Z,4.7
2023-03-20T13:11:42.380Z,3.9
2023-03-20T13:13:16.581Z,4.1
2023-03-20T13:14:14.766Z,3.8
2023-03-20T13:15:48.959Z,3.9
2023-03-20T13:16:47.153Z,3.9
2023-03-20T13:18:21.000Z,4.3
2023-03-20T13:19:37.000Z,3.6
2023-03-20T13:20:53.747Z,4
2023-03-20T13:21:51.926Z,3.9
2023-03-20T13:23:26.119Z,3.8
2023-03-20T13:24:42.310Z,3.8
2023-03-20T13:25:58.000Z,4.4
2023-03-20T13:27:14.000Z,4.3
2023-03-20T13:28:30.000Z,4.6
2023-03-20T13:29:29.084Z,4.8
2023-03-20T13:31:03.288Z,4.4
2023-03-20T13:32:19.000Z,4.8
2023-03-20T13:33:35.000Z,3.7
2023-03-20T13:34:51.870Z,4.5
2023-03-20T13:36:07.000Z,4.4
2023-03-20T13:37:23.000Z,4.9
2023-03-20T13:39:02.000Z,4.3
2023-03-20T13:39:37.645Z,3.8
2023-03-20T13:41:11.000Z,4.4
2023-03-20T13:42:28.032Z,4.2
2023-03-20T13:43:44.000Z,5.6
2023-03-20T13:45:00.000Z,4.3
2023-03-20T13:46:16.619Z,4.6
2023-03-20T13:47:32.803Z,4.7
2023-03-20T13:48:49.009Z,4
2023-03-20T13:49:47.192Z,4.7
2023-03-20T13:51:21.386Z,4.8
2023-03-20T13:52:37.578Z,4.8
2023-03-20T13:53:53.000Z,4.6
2023-03-20T13:55:09.971Z,4.7
2023-03-20T13:56:26.000Z,5.1
2023-03-20T13:57:42.352Z,4.9
2023-03-20T13:58:58.000Z,4.7
2023-03-20T14:00:14.737Z,5
2023-03-20T14:01:31.056Z,4.5
2023-03-20T14:02:47.257Z,4.4
2023-03-20T14:04:03.000Z,4.3
2023-03-20T14:05:19.638Z,3.9
2023-03-20T14:06:58.000Z,4.8
2023-03-20T14:07:52.019Z,4.7
2023-03-20T14:09:08.000Z,4.7
2023-03-20T14:10:24.000Z,4.8
2023-03-20T14:11:40.000Z,4.4
2023-03-20T14:12:56.792Z,4.7
2023-03-20T14:13:54.985Z,4.3
2023-03-20T14:15:11.178Z,4.4
2023-03-20T14:16:45.385Z,4.6
2023-03-20T14:18:01.575Z,4.7
2023-03-20T14:19:17.000Z,4.6
2023-03-20T14:20:34.080Z,4.9
2023-03-20T14:21:50.270Z,5
2023-03-20T14:23:06.458Z,4.2
2023-03-20T14:24:22.655Z,5
2023-03-20T14:25:38.846Z,4.9
2023-03-20T14:26:55.043Z,5.5
2023-03-20T14:28:11.245Z,4.8
2023-03-20T14:29:27.430Z,4.5
2023-03-20T14:30:25.617Z,4.8
2023-03-20T14:31:59.815Z,4.5
2023-03-20T14:33:16.006Z,4.8
2023-03-20T14:34:32.000Z,4.2
2023-03-20T14:35:48.000Z,4.6
2023-03-20T14:37:04.000Z,4.7
2023-03-20T14:38:20.777Z,4.2
2023-03-20T14:39:35.996Z,4.9
2023-03-20T14:40:34.179Z,4.8
2023-03-20T14:42:08.000Z,4.4
2023-03-20T14:43:06.565Z,4.8
2023-03-20T14:44:40.762Z,4.9
2023-03-20T14:45:56.000Z,4.5
2023-03-20T14:47:36.000Z,4.1
2023-03-20T14:48:29.000Z,4.2
2023-03-20T14:49:45.539Z,3.8
2023-03-20T14:50:43.723Z,4.9
2023-03-20T14:52:17.926Z,4.6
2023-03-20T14:53:34.000Z,4.9
2023-03-20T14:54:50.302Z,4.4
2023-03-20T14:55:48.495Z,4.5
2023-03-20T14:57:21.000Z,4.6
2023-03-20T14:58:37.907Z,4.9
2023-03-20T14:59:54.091Z,4.6
2023-03-20T15:01:10.000Z,4.6
2023-03-20T15:02:26.477Z,4.1
2023-03-20T15:03:24.670Z,4.7
2023-03-20T15:04:58.000Z,4.8
2023-03-20T15:06:15.054Z,4.6
2023-03-20T15:07:31.258Z,5.2
2023-03-20T15:08:29.442Z,5.3
2023-03-20T15:10:03.645Z,4.9
2023-03-20T15:11:01.828Z,4.8
2023-03-20T15:12:36.021Z,5
2023-03-20T15:13:52.000Z,5.5
2023-03-20T15:15:08.407Z,5
2023-03-20T15:16:24.000Z,4.8
2023-03-20T15:17:40.793Z,4.8
2023-03-20T15:18:38.002Z,5
2023-03-20T15:20:12.000Z,5.3
2023-03-20T15:21:10.389Z,5.2
2023-03-20T15:22:44.590Z,5
2023-03-20T15:24:00.778Z,5.2
2023-03-20T15:25:16.000Z,5.2
2023-03-20T15:26:33.000Z,5
2023-03-20T15:27:49.000Z,5.1
2023-03-20T15:29:05.562Z,5.5
2023-03-20T15:30:21.000Z,5.6
2023-03-20T15:31:19.933Z,5.2
2023-03-20T15:32:54.126Z,5.1
2023-03-20T15:34:10.329Z,5.5
2023-03-20T15:35:26.512Z,5.6
2023-03-20T15:36:24.705Z,5.6
2023-03-20T15:37:58.898Z,6
2023-03-20T15:39:15.000Z,5.7
2023-03-20T15:40:31.286Z,4.4
2023-03-20T15:41:28.492Z,5.6
2023-03-20T15:43:02.686Z,5.2
2023-03-20T15:44:18.885Z,5.2
2023-03-20T15:45:17.072Z,5.4
2023-03-20T15:46:33.265Z,4.5
2023-03-20T15:48:07.465Z,5.3
2023-03-20T15:49:05.651Z,5.4
2023-03-20T15:50:39.000Z,5.3
2023-03-20T15:51:56.000Z,5.2
2023-03-20T15:53:12.230Z,5.7
2023-03-20T15:54:28.427Z,5.5
2023-03-20T15:55:44.000Z,5.1
2023-03-20T15:57:00.808Z,5.5
2023-03-20T15:58:16.000Z,5.3
2023-03-20T15:59:14.211Z,4.8
2023-03-20T16:00:30.404Z,5.2
2023-03-20T16:01:46.597Z,4.9
2023-03-20T16:03:20.790Z,4.5
2023-03-20T16:04:37.000Z,5
2023-03-20T16:05:53.000Z,5
2023-03-20T16:07:09.372Z,5
2023-03-20T16:08:25.000Z,4.9
2023-03-20T16:09:23.755Z,4.4
2023-03-20T16:10:57.000Z,5.3
2023-03-20T16:12:14.141Z,4.4
2023-03-20T16:13:30.000Z,4.3
2023-03-20T16:14:28.527Z,4.4
2023-03-20T16:16:01.746Z,5
2023-03-20T16:17:17.000Z,5.2
2023-03-20T16:18:34.000Z,4.6
2023-03-20T16:19:50.322Z,5.2
2023-03-20T16:21:06.000Z,5.1
2023-03-20T16:22:22.703Z,4.9
2023-03-20T16:23:38.000Z,4.4
2023-03-20T16:24:55.000Z,4.2
2023-03-20T16:25:53.280Z,5.2
2023-03-20T16:27:09.473Z,4.8
2023-03-20T16:28:43.000Z,4.4
2023-03-20T16:29:59.859Z,4.8
2023-03-20T16:31:16.052Z,4.6
2023-03-20T16:32:14.245Z,4.5
2023-03-20T16:33:30.438Z,4.8
2023-03-20T16:34:46.631Z,5.1
2023-03-20T16:36:19.000Z,5
2023-03-20T16:37:36.000Z,4.9
2023-03-20T16:38:52.000Z,5.3
2023-03-20T16:39:50.420Z,5
2023-03-20T16:41:24.000Z,5.3
2023-03-20T16:42:40.000Z,4.7
2023-03-20T16:43:57.000Z,4.7
2023-03-20T16:45:13.192Z,4.8
2023-03-20T16:46:11.384Z,4.9
2023-03-20T16:47:27.577Z,5
2023-03-20T16:49:01.790Z,5
2023-03-20T16:50:17.000Z,5
2023-03-20T16:51:34.000Z,5.7
2023-03-20T16:52:50.348Z,4.6
2023-03-20T16:53:48.541Z,4.2
2023-03-20T16:55:22.000Z,4.6
2023-03-20T16:56:38.927Z,5
2023-03-20T16:57:36.143Z,5.2
2023-03-20T16:59:10.000Z,4.6
2023-03-20T17:00:26.546Z,4.4
2023-03-20T17:01:42.000Z,4.4
2023-03-20T17:02:40.916Z,4.8
2023-03-20T17:03:57.109Z,4.9
2023-03-20T17:05:13.302Z,4.2
2023-03-20T17:06:47.000Z,4.7
2023-03-20T17:08:03.000Z,5.5
2023-03-20T17:09:01.881Z,4.2
2023-03-20T17:10:18.074Z,5
2023-03-20T17:11:52.276Z,4.9
2023-03-20T17:12:50.460Z,4.5
2023-03-20T17:14:24.000Z,4.9
2023-03-20T17:15:40.857Z,4.5
2023-03-20T17:16:38.056Z,4.4
2023-03-20T17:18:12.250Z,4.7
2023-03-20T17:19:28.457Z,4.3
2023-03-20T17:20:44.000Z,5
2023-03-20T17:22:00.000Z,4.9
2023-03-20T17:22:59.020Z,4.9
2023-03-20T17:24:33.000Z,5.5
2023-03-20T17:25:31.406Z,4.4
2023-03-20T17:27:05.000Z,4.4
2023-03-20T17:28:21.805Z,4.8
2023-03-20T17:29:37.000Z,4.9
2023-03-20T17:30:54.190Z,4.6
2023-03-20T17:32:10.389Z,4.6
2023-03-20T17:33:26.000Z,4.4
2023-03-20T17:34:42.763Z,4.8
2023-03-20T17:35:39.966Z,4.5
2023-03-20T17:37:14.000Z,5
2023-03-20T17:38:30.352Z,4.8